sensor_id;sensor_type;location;lat;lon;timestamp;P1;durP1;ratioP1;P2;durP2;ratioP2
44272;SDS011;29964;17.182;-96.766;2023-04-10T00:00:09;2.13;;;1.23;;
44272;SDS011;29964;17.182;-96.766;2023-04-10T00:02:36;1.48;;;1.15;;
44272;SDS011;29964;17.182;-96.766;2023-04-10T00:05:03;1.50;;;0.93;;
44272;SDS011;29964;17.182;-96.766;2023-04-10T00:07:30;1.25;;;1.02;;
44272;SDS011;29964;17.182;-96.766;2023-04-10T00:09:57;3.20;;;1.55;;
44272;SDS011;29964;17.182;-96.766;2023-04-10T00:12:24;1.45;;;1.08;;
44272;SDS011;29964;17.182;-96.766;2023-04-10T00:14:51;1.63;;;1.05;;
44272;SDS011;29964;17.182;-96.766;2023-04-10T00:17:18;2.97;;;1.20;;
44272;SDS011;29964;17.182;-96.766;2023-04-10T00:19:44;4.03;;;1.10;;
44272;SDS011;29964;17.182;-96.766;2023-04-10T00:22:11;1.17;;;0.98;;
44272;SDS011;29964;17.182;-96.766;2023-04-10T00:24:38;4.57;;;1.60;;
44272;SDS011;29964;17.182;-96.766;2023-04-10T00:27:05;2.28;;;1.40;;
44272;SDS011;29964;17.182;-96.766;2023-04-10T00:29:31;3.30;;;1.60;;
44272;SDS011;29964;17.182;-96.766;2023-04-10T00:31:58;1.02;;;0.80;;
44272;SDS011;29964;17.182;-96.766;2023-04-10T00:34:25;1.42;;;1.15;;
44272;SDS011;29964;17.182;-96.766;2023-04-10T00:36:51;2.30;;;1.35;;
44272;SDS011;29964;17.182;-96.766;2023-04-10T00:39:18;2.00;;;0.95;;
44272;SDS011;29964;17.182;-96.766;2023-04-10T00:41:45;2.85;;;1.30;;
44272;SDS011;29964;17.182;-96.766;2023-04-10T00:44:11;9.50;;;2.17;;
44272;SDS011;29964;17.182;-96.766;2023-04-10T00:46:38;1.83;;;1.20;;
44272;SDS011;29964;17.182;-96.766;2023-04-10T00:49:05;2.72;;;1.55;;
44272;SDS011;29964;17.182;-96.766;2023-04-10T00:51:33;1.45;;;1.10;;
44272;SDS011;29964;17.182;-96.766;2023-04-10T00:54:01;1.83;;;1.13;;
44272;SDS011;29964;17.182;-96.766;2023-04-10T00:56:29;2.50;;;1.50;;
44272;SDS011;29964;17.182;-96.766;2023-04-10T00:58:56;1.60;;;1.13;;
44272;SDS011;29964;17.182;-96.766;2023-04-10T01:01:23;3.60;;;1.48;;
44272;SDS011;29964;17.182;-96.766;2023-04-10T01:03:50;2.90;;;1.70;;
44272;SDS011;29964;17.182;-96.766;2023-04-10T01:08:59;3.25;;;1.73;;
44272;SDS011;29964;17.182;-96.766;2023-04-10T01:11:37;1.40;;;1.03;;
44272;SDS011;29964;17.182;-96.766;2023-04-10T01:16:35;2.83;;;1.53;;
44272;SDS011;29964;17.182;-96.766;2023-04-10T01:19:06;2.53;;;1.63;;
44272;SDS011;29964;17.182;-96.766;2023-04-10T01:21:37;3.97;;;1.83;;
44272;SDS011;29964;17.182;-96.766;2023-04-10T01:29:16;2.20;;;1.40;;
44272;SDS011;29964;17.182;-96.766;2023-04-10T01:31:57;2.53;;;1.67;;
44272;SDS011;29964;17.182;-96.766;2023-04-10T01:34:25;2.83;;;2.20;;
44272;SDS011;29964;17.182;-96.766;2023-04-10T01:37:00;4.83;;;1.53;;
44272;SDS011;29964;17.182;-96.766;2023-04-10T01:39:27;3.10;;;2.00;;
44272;SDS011;29964;17.182;-96.766;2023-04-10T01:41:55;2.67;;;1.53;;
44272;SDS011;29964;17.182;-96.766;2023-04-10T01:44:22;2.40;;;1.63;;
44272;SDS011;29964;17.182;-96.766;2023-04-10T01:46:53;5.07;;;1.80;;
44272;SDS011;29964;17.182;-96.766;2023-04-10T01:49:20;3.30;;;1.90;;
44272;SDS011;29964;17.182;-96.766;2023-04-10T01:51:49;3.53;;;1.97;;
44272;SDS011;29964;17.182;-96.766;2023-04-10T01:54:16;2.37;;;1.57;;
44272;SDS011;29964;17.182;-96.766;2023-04-10T01:56:43;3.77;;;2.03;;
44272;SDS011;29964;17.182;-96.766;2023-04-10T01:59:10;13.80;;;1.90;;
44272;SDS011;29964;17.182;-96.766;2023-04-10T02:01:37;1.97;;;1.40;;
44272;SDS011;29964;17.182;-96.766;2023-04-10T02:04:03;10.93;;;2.50;;
44272;SDS011;29964;17.182;-96.766;2023-04-10T02:06:41;2.57;;;1.20;;
44272;SDS011;29964;17.182;-96.766;2023-04-10T02:09:18;4.70;;;1.70;;
44272;SDS011;29964;17.182;-96.766;2023-04-10T02:14:15;4.37;;;2.10;;
44272;SDS011;29964;17.182;-96.766;2023-04-10T02:16:42;3.90;;;2.33;;
44272;SDS011;29964;17.182;-96.766;2023-04-10T02:19:09;2.80;;;1.90;;
44272;SDS011;29964;17.182;-96.766;2023-04-10T02:21:37;2.90;;;2.00;;
44272;SDS011;29964;17.182;-96.766;2023-04-10T02:24:04;5.57;;;2.50;;
44272;SDS011;29964;17.182;-96.766;2023-04-10T02:26:46;7.00;;;2.27;;
44272;SDS011;29964;17.182;-96.766;2023-04-10T02:29:13;4.27;;;2.00;;
44272;SDS011;29964;17.182;-96.766;2023-04-10T02:31:40;2.50;;;1.67;;
44272;SDS011;29964;17.182;-96.766;2023-04-10T02:34:07;5.03;;;2.20;;
44272;SDS011;29964;17.182;-96.766;2023-04-10T02:36:37;2.93;;;2.00;;
44272;SDS011;29964;17.182;-96.766;2023-04-10T02:39:05;2.73;;;1.80;;
44272;SDS011;29964;17.182;-96.766;2023-04-10T02:41:34;1.93;;;1.43;;
44272;SDS011;29964;17.182;-96.766;2023-04-10T02:44:01;2.67;;;1.73;;
44272;SDS011;29964;17.182;-96.766;2023-04-10T02:46:27;2.93;;;2.07;;
44272;SDS011;29964;17.182;-96.766;2023-04-10T02:48:54;6.47;;;1.80;;
44272;SDS011;29964;17.182;-96.766;2023-04-10T02:51:21;4.37;;;2.23;;
44272;SDS011;29964;17.182;-96.766;2023-04-10T02:53:47;1.53;;;1.03;;
44272;SDS011;29964;17.182;-96.766;2023-04-10T02:56:15;2.90;;;1.47;;
44272;SDS011;29964;17.182;-96.766;2023-04-10T02:58:43;2.47;;;1.63;;
44272;SDS011;29964;17.182;-96.766;2023-04-10T03:01:14;4.77;;;1.90;;
44272;SDS011;29964;17.182;-96.766;2023-04-10T03:03:41;4.40;;;1.77;;
44272;SDS011;29964;17.182;-96.766;2023-04-10T03:06:08;2.77;;;1.90;;
44272;SDS011;29964;17.182;-96.766;2023-04-10T03:08:35;5.40;;;1.60;;
44272;SDS011;29964;17.182;-96.766;2023-04-10T03:11:02;1.97;;;1.47;;
44272;SDS011;29964;17.182;-96.766;2023-04-10T03:13:28;4.40;;;1.80;;
44272;SDS011;29964;17.182;-96.766;2023-04-10T03:15:55;3.97;;;2.43;;
44272;SDS011;29964;17.182;-96.766;2023-04-10T03:18:22;4.97;;;1.87;;
44272;SDS011;29964;17.182;-96.766;2023-04-10T03:20:48;2.23;;;1.87;;
44272;SDS011;29964;17.182;-96.766;2023-04-10T03:23:15;12.27;;;2.73;;
44272;SDS011;29964;17.182;-96.766;2023-04-10T03:25:42;4.37;;;2.10;;
44272;SDS011;29964;17.182;-96.766;2023-04-10T03:28:08;5.30;;;2.43;;
44272;SDS011;29964;17.182;-96.766;2023-04-10T03:30:35;4.50;;;2.13;;
44272;SDS011;29964;17.182;-96.766;2023-04-10T03:33:02;3.17;;;2.20;;
44272;SDS011;29964;17.182;-96.766;2023-04-10T03:35:29;4.73;;;2.13;;
44272;SDS011;29964;17.182;-96.766;2023-04-10T03:37:55;3.90;;;2.70;;
44272;SDS011;29964;17.182;-96.766;2023-04-10T03:40:22;7.67;;;2.33;;
44272;SDS011;29964;17.182;-96.766;2023-04-10T03:42:49;4.33;;;2.27;;
44272;SDS011;29964;17.182;-96.766;2023-04-10T03:45:15;3.63;;;2.30;;
44272;SDS011;29964;17.182;-96.766;2023-04-10T03:47:42;2.00;;;1.53;;
44272;SDS011;29964;17.182;-96.766;2023-04-10T03:50:09;15.67;;;2.60;;
44272;SDS011;29964;17.182;-96.766;2023-04-10T03:52:36;4.07;;;2.30;;
44272;SDS011;29964;17.182;-96.766;2023-04-10T03:55:02;2.93;;;2.23;;
44272;SDS011;29964;17.182;-96.766;2023-04-10T03:57:29;2.77;;;2.27;;
44272;SDS011;29964;17.182;-96.766;2023-04-10T03:59:56;1.73;;;1.47;;
44272;SDS011;29964;17.182;-96.766;2023-04-10T04:02:23;7.37;;;2.60;;
44272;SDS011;29964;17.182;-96.766;2023-04-10T04:04:50;2.77;;;1.83;;
44272;SDS011;29964;17.182;-96.766;2023-04-10T04:07:16;2.87;;;2.00;;
44272;SDS011;29964;17.182;-96.766;2023-04-10T04:09:43;6.23;;;2.17;;
44272;SDS011;29964;17.182;-96.766;2023-04-10T04:12:10;2.43;;;1.63;;
44272;SDS011;29964;17.182;-96.766;2023-04-10T04:14:39;2.50;;;1.93;;
44272;SDS011;29964;17.182;-96.766;2023-04-10T04:17:07;3.73;;;2.50;;
44272;SDS011;29964;17.182;-96.766;2023-04-10T04:19:34;3.83;;;2.23;;
44272;SDS011;29964;17.182;-96.766;2023-04-10T04:22:00;2.97;;;1.80;;
44272;SDS011;29964;17.182;-96.766;2023-04-10T04:24:28;2.93;;;2.30;;
44272;SDS011;29964;17.182;-96.766;2023-04-10T04:26:55;3.50;;;2.33;;
44272;SDS011;29964;17.182;-96.766;2023-04-10T04:29:21;2.60;;;2.17;;
44272;SDS011;29964;17.182;-96.766;2023-04-10T04:31:49;3.00;;;2.20;;
44272;SDS011;29964;17.182;-96.766;2023-04-10T04:34:16;3.03;;;2.13;;
44272;SDS011;29964;17.182;-96.766;2023-04-10T04:36:42;3.17;;;2.10;;
44272;SDS011;29964;17.182;-96.766;2023-04-10T04:39:09;2.80;;;2.13;;
44272;SDS011;29964;17.182;-96.766;2023-04-10T04:41:36;2.93;;;2.30;;
44272;SDS011;29964;17.182;-96.766;2023-04-10T04:44:03;4.13;;;3.17;;
44272;SDS011;29964;17.182;-96.766;2023-04-10T04:46:31;8.60;;;2.90;;
44272;SDS011;29964;17.182;-96.766;2023-04-10T04:48:57;12.80;;;4.20;;
44272;SDS011;29964;17.182;-96.766;2023-04-10T04:51:24;5.07;;;3.57;;
44272;SDS011;29964;17.182;-96.766;2023-04-10T04:53:51;6.03;;;3.40;;
44272;SDS011;29964;17.182;-96.766;2023-04-10T04:56:18;6.73;;;3.77;;
44272;SDS011;29964;17.182;-96.766;2023-04-10T04:58:44;8.50;;;3.83;;
44272;SDS011;29964;17.182;-96.766;2023-04-10T05:01:11;4.63;;;3.27;;
44272;SDS011;29964;17.182;-96.766;2023-04-10T05:03:38;4.80;;;3.07;;
44272;SDS011;29964;17.182;-96.766;2023-04-10T05:06:04;4.37;;;3.20;;
44272;SDS011;29964;17.182;-96.766;2023-04-10T05:08:31;4.03;;;2.27;;
44272;SDS011;29964;17.182;-96.766;2023-04-10T05:10:58;9.10;;;3.27;;
44272;SDS011;29964;17.182;-96.766;2023-04-10T05:13:24;3.10;;;2.23;;
44272;SDS011;29964;17.182;-96.766;2023-04-10T05:15:51;3.43;;;2.20;;
44272;SDS011;29964;17.182;-96.766;2023-04-10T05:18:18;4.33;;;2.87;;
44272;SDS011;29964;17.182;-96.766;2023-04-10T05:20:48;8.40;;;3.37;;
44272;SDS011;29964;17.182;-96.766;2023-04-10T05:23:15;4.90;;;2.90;;
44272;SDS011;29964;17.182;-96.766;2023-04-10T05:25:42;3.37;;;1.97;;
44272;SDS011;29964;17.182;-96.766;2023-04-10T05:28:08;3.80;;;2.60;;
44272;SDS011;29964;17.182;-96.766;2023-04-10T05:30:35;3.50;;;2.23;;
44272;SDS011;29964;17.182;-96.766;2023-04-10T05:33:01;1.93;;;1.53;;
44272;SDS011;29964;17.182;-96.766;2023-04-10T05:35:28;4.17;;;1.97;;
44272;SDS011;29964;17.182;-96.766;2023-04-10T05:37:55;3.90;;;2.10;;
44272;SDS011;29964;17.182;-96.766;2023-04-10T05:40:23;1.63;;;1.13;;
44272;SDS011;29964;17.182;-96.766;2023-04-10T05:42:50;1.93;;;1.57;;
44272;SDS011;29964;17.182;-96.766;2023-04-10T05:45:17;6.70;;;2.70;;
44272;SDS011;29964;17.182;-96.766;2023-04-10T05:47:44;3.03;;;2.13;;
44272;SDS011;29964;17.182;-96.766;2023-04-10T05:50:10;2.47;;;1.77;;
44272;SDS011;29964;17.182;-96.766;2023-04-10T05:52:37;2.37;;;1.63;;
44272;SDS011;29964;17.182;-96.766;2023-04-10T05:55:04;8.73;;;1.57;;
44272;SDS011;29964;17.182;-96.766;2023-04-10T05:57:31;7.23;;;3.00;;
44272;SDS011;29964;17.182;-96.766;2023-04-10T05:59:57;3.47;;;2.30;;
44272;SDS011;29964;17.182;-96.766;2023-04-10T06:02:24;3.20;;;2.40;;
44272;SDS011;29964;17.182;-96.766;2023-04-10T06:04:51;3.30;;;2.47;;
44272;SDS011;29964;17.182;-96.766;2023-04-10T06:07:18;2.73;;;1.97;;
44272;SDS011;29964;17.182;-96.766;2023-04-10T06:09:45;2.67;;;2.13;;
44272;SDS011;29964;17.182;-96.766;2023-04-10T06:12:11;7.03;;;3.37;;
44272;SDS011;29964;17.182;-96.766;2023-04-10T06:14:38;4.13;;;2.47;;
44272;SDS011;29964;17.182;-96.766;2023-04-10T06:17:05;1.87;;;1.67;;
44272;SDS011;29964;17.182;-96.766;2023-04-10T06:19:31;6.90;;;2.87;;
44272;SDS011;29964;17.182;-96.766;2023-04-10T06:21:58;3.27;;;2.47;;
44272;SDS011;29964;17.182;-96.766;2023-04-10T06:24:25;2.93;;;2.17;;
44272;SDS011;29964;17.182;-96.766;2023-04-10T06:26:52;2.53;;;1.77;;
44272;SDS011;29964;17.182;-96.766;2023-04-10T06:29:18;2.40;;;1.87;;
44272;SDS011;29964;17.182;-96.766;2023-04-10T06:31:45;3.97;;;2.53;;
44272;SDS011;29964;17.182;-96.766;2023-04-10T06:34:12;10.17;;;2.97;;
44272;SDS011;29964;17.182;-96.766;2023-04-10T06:36:38;5.10;;;1.67;;
44272;SDS011;29964;17.182;-96.766;2023-04-10T06:39:05;4.20;;;2.13;;
44272;SDS011;29964;17.182;-96.766;2023-04-10T06:41:32;4.47;;;2.43;;
44272;SDS011;29964;17.182;-96.766;2023-04-10T06:43:58;4.17;;;2.83;;
44272;SDS011;29964;17.182;-96.766;2023-04-10T06:46:26;2.07;;;1.60;;
44272;SDS011;29964;17.182;-96.766;2023-04-10T06:48:52;4.73;;;3.17;;
44272;SDS011;29964;17.182;-96.766;2023-04-10T06:51:19;4.23;;;2.60;;
44272;SDS011;29964;17.182;-96.766;2023-04-10T06:53:46;3.50;;;1.77;;
44272;SDS011;29964;17.182;-96.766;2023-04-10T06:56:13;3.67;;;1.87;;
44272;SDS011;29964;17.182;-96.766;2023-04-10T06:58:39;2.33;;;1.90;;
44272;SDS011;29964;17.182;-96.766;2023-04-10T07:01:06;3.07;;;2.30;;
44272;SDS011;29964;17.182;-96.766;2023-04-10T07:03:33;4.60;;;2.93;;
44272;SDS011;29964;17.182;-96.766;2023-04-10T07:05:59;2.57;;;1.97;;
44272;SDS011;29964;17.182;-96.766;2023-04-10T07:08:27;6.37;;;3.03;;
44272;SDS011;29964;17.182;-96.766;2023-04-10T07:10:54;3.50;;;2.63;;
44272;SDS011;29964;17.182;-96.766;2023-04-10T07:13:20;4.23;;;2.10;;
44272;SDS011;29964;17.182;-96.766;2023-04-10T07:15:47;4.47;;;2.83;;
44272;SDS011;29964;17.182;-96.766;2023-04-10T07:18:14;8.77;;;3.13;;
44272;SDS011;29964;17.182;-96.766;2023-04-10T07:20:40;8.50;;;2.87;;
44272;SDS011;29964;17.182;-96.766;2023-04-10T07:23:07;4.23;;;2.07;;
44272;SDS011;29964;17.182;-96.766;2023-04-10T07:25:34;4.93;;;3.57;;
44272;SDS011;29964;17.182;-96.766;2023-04-10T07:28:00;3.53;;;2.40;;
44272;SDS011;29964;17.182;-96.766;2023-04-10T07:30:27;3.27;;;2.20;;
44272;SDS011;29964;17.182;-96.766;2023-04-10T07:32:54;6.23;;;2.47;;
44272;SDS011;29964;17.182;-96.766;2023-04-10T07:35:20;3.23;;;2.27;;
44272;SDS011;29964;17.182;-96.766;2023-04-10T07:37:47;2.80;;;1.80;;
44272;SDS011;29964;17.182;-96.766;2023-04-10T07:40:16;2.37;;;1.83;;
44272;SDS011;29964;17.182;-96.766;2023-04-10T07:42:42;14.23;;;3.50;;
44272;SDS011;29964;17.182;-96.766;2023-04-10T07:45:10;4.07;;;2.67;;
44272;SDS011;29964;17.182;-96.766;2023-04-10T07:47:37;4.97;;;2.37;;
44272;SDS011;29964;17.182;-96.766;2023-04-10T07:50:04;2.90;;;1.90;;
44272;SDS011;29964;17.182;-96.766;2023-04-10T07:52:30;2.73;;;1.97;;
44272;SDS011;29964;17.182;-96.766;2023-04-10T07:55:00;3.97;;;2.37;;
44272;SDS011;29964;17.182;-96.766;2023-04-10T07:57:30;3.00;;;2.20;;
44272;SDS011;29964;17.182;-96.766;2023-04-10T07:59:56;10.93;;;3.27;;
44272;SDS011;29964;17.182;-96.766;2023-04-10T08:02:23;3.20;;;2.13;;
44272;SDS011;29964;17.182;-96.766;2023-04-10T08:04:50;2.27;;;1.77;;
44272;SDS011;29964;17.182;-96.766;2023-04-10T08:07:17;2.53;;;1.80;;
44272;SDS011;29964;17.182;-96.766;2023-04-10T08:09:44;4.43;;;2.27;;
44272;SDS011;29964;17.182;-96.766;2023-04-10T08:12:11;3.00;;;2.40;;
44272;SDS011;29964;17.182;-96.766;2023-04-10T08:14:37;3.80;;;2.83;;
44272;SDS011;29964;17.182;-96.766;2023-04-10T08:17:04;2.40;;;1.77;;
44272;SDS011;29964;17.182;-96.766;2023-04-10T08:19:31;3.67;;;2.63;;
44272;SDS011;29964;17.182;-96.766;2023-04-10T08:21:57;4.33;;;2.43;;
44272;SDS011;29964;17.182;-96.766;2023-04-10T08:24:24;6.17;;;2.30;;
44272;SDS011;29964;17.182;-96.766;2023-04-10T08:26:51;3.87;;;2.20;;
44272;SDS011;29964;17.182;-96.766;2023-04-10T08:29:17;3.83;;;2.13;;
44272;SDS011;29964;17.182;-96.766;2023-04-10T08:31:44;4.63;;;3.07;;
44272;SDS011;29964;17.182;-96.766;2023-04-10T08:34:11;1.97;;;1.47;;
44272;SDS011;29964;17.182;-96.766;2023-04-10T08:36:37;6.03;;;2.77;;
44272;SDS011;29964;17.182;-96.766;2023-04-10T08:39:04;3.30;;;2.20;;
44272;SDS011;29964;17.182;-96.766;2023-04-10T08:41:31;2.90;;;2.17;;
44272;SDS011;29964;17.182;-96.766;2023-04-10T08:43:57;3.40;;;2.00;;
44272;SDS011;29964;17.182;-96.766;2023-04-10T08:46:24;2.70;;;1.87;;
44272;SDS011;29964;17.182;-96.766;2023-04-10T08:49:01;2.57;;;1.83;;
44272;SDS011;29964;17.182;-96.766;2023-04-10T08:51:30;2.90;;;2.07;;
44272;SDS011;29964;17.182;-96.766;2023-04-10T08:53:59;2.97;;;1.80;;
44272;SDS011;29964;17.182;-96.766;2023-04-10T08:56:29;2.27;;;1.40;;
44272;SDS011;29964;17.182;-96.766;2023-04-10T08:58:56;3.03;;;1.93;;
44272;SDS011;29964;17.182;-96.766;2023-04-10T09:01:23;3.57;;;2.47;;
44272;SDS011;29964;17.182;-96.766;2023-04-10T09:03:50;3.33;;;2.20;;
44272;SDS011;29964;17.182;-96.766;2023-04-10T09:06:17;3.40;;;2.57;;
44272;SDS011;29964;17.182;-96.766;2023-04-10T09:08:43;2.57;;;1.97;;
44272;SDS011;29964;17.182;-96.766;2023-04-10T09:11:10;3.10;;;2.07;;
44272;SDS011;29964;17.182;-96.766;2023-04-10T09:13:38;2.20;;;1.70;;
44272;SDS011;29964;17.182;-96.766;2023-04-10T09:16:05;4.20;;;2.33;;
44272;SDS011;29964;17.182;-96.766;2023-04-10T09:18:42;2.27;;;1.77;;
44272;SDS011;29964;17.182;-96.766;2023-04-10T09:21:09;2.60;;;2.10;;
44272;SDS011;29964;17.182;-96.766;2023-04-10T09:23:40;17.57;;;3.17;;
44272;SDS011;29964;17.182;-96.766;2023-04-10T09:28:59;3.67;;;2.37;;
44272;SDS011;29964;17.182;-96.766;2023-04-10T09:31:27;7.57;;;2.70;;
44272;SDS011;29964;17.182;-96.766;2023-04-10T09:34:07;3.23;;;2.13;;
44272;SDS011;29964;17.182;-96.766;2023-04-10T09:36:34;1.37;;;1.20;;
44272;SDS011;29964;17.182;-96.766;2023-04-10T09:39:02;3.00;;;2.10;;
44272;SDS011;29964;17.182;-96.766;2023-04-10T09:41:31;4.80;;;2.90;;
44272;SDS011;29964;17.182;-96.766;2023-04-10T09:44:10;6.03;;;2.87;;
44272;SDS011;29964;17.182;-96.766;2023-04-10T09:46:37;3.63;;;2.40;;
44272;SDS011;29964;17.182;-96.766;2023-04-10T09:49:03;3.40;;;2.37;;
44272;SDS011;29964;17.182;-96.766;2023-04-10T09:51:32;3.40;;;2.73;;
44272;SDS011;29964;17.182;-96.766;2023-04-10T09:53:59;2.60;;;1.63;;
44272;SDS011;29964;17.182;-96.766;2023-04-10T09:56:26;4.23;;;2.87;;
44272;SDS011;29964;17.182;-96.766;2023-04-10T09:58:56;4.40;;;2.67;;
44272;SDS011;29964;17.182;-96.766;2023-04-10T10:01:25;3.40;;;2.47;;
44272;SDS011;29964;17.182;-96.766;2023-04-10T10:03:55;4.20;;;2.27;;
44272;SDS011;29964;17.182;-96.766;2023-04-10T10:06:26;3.57;;;2.40;;
44272;SDS011;29964;17.182;-96.766;2023-04-10T10:08:53;2.00;;;1.40;;
44272;SDS011;29964;17.182;-96.766;2023-04-10T10:11:20;1.97;;;1.57;;
44272;SDS011;29964;17.182;-96.766;2023-04-10T10:13:50;1.83;;;1.20;;
44272;SDS011;29964;17.182;-96.766;2023-04-10T10:16:42;3.47;;;2.53;;
44272;SDS011;29964;17.182;-96.766;2023-04-10T10:19:17;4.03;;;2.87;;
44272;SDS011;29964;17.182;-96.766;2023-04-10T10:21:45;14.85;;;2.92;;
44272;SDS011;29964;17.182;-96.766;2023-04-10T10:24:12;3.80;;;2.43;;
44272;SDS011;29964;17.182;-96.766;2023-04-10T10:26:39;5.60;;;2.53;;
44272;SDS011;29964;17.182;-96.766;2023-04-10T10:29:06;2.27;;;1.73;;
44272;SDS011;29964;17.182;-96.766;2023-04-10T10:31:38;2.67;;;1.67;;
44272;SDS011;29964;17.182;-96.766;2023-04-10T10:34:05;3.53;;;2.50;;
44272;SDS011;29964;17.182;-96.766;2023-04-10T10:36:34;3.67;;;2.57;;
44272;SDS011;29964;17.182;-96.766;2023-04-10T10:41:36;2.83;;;2.00;;
44272;SDS011;29964;17.182;-96.766;2023-04-10T10:44:22;3.97;;;2.43;;
44272;SDS011;29964;17.182;-96.766;2023-04-10T10:46:57;2.43;;;1.93;;
44272;SDS011;29964;17.182;-96.766;2023-04-10T10:52:11;3.50;;;2.10;;
44272;SDS011;29964;17.182;-96.766;2023-04-10T10:54:38;2.73;;;2.10;;
44272;SDS011;29964;17.182;-96.766;2023-04-10T10:57:05;4.50;;;2.57;;
44272;SDS011;29964;17.182;-96.766;2023-04-10T11:02:18;7.47;;;2.50;;
44272;SDS011;29964;17.182;-96.766;2023-04-10T11:04:45;3.63;;;1.97;;
44272;SDS011;29964;17.182;-96.766;2023-04-10T11:07:13;2.63;;;2.03;;
44272;SDS011;29964;17.182;-96.766;2023-04-10T11:09:44;3.30;;;2.20;;
44272;SDS011;29964;17.182;-96.766;2023-04-10T11:12:14;6.80;;;2.87;;
44272;SDS011;29964;17.182;-96.766;2023-04-10T11:14:44;2.93;;;2.20;;
44272;SDS011;29964;17.182;-96.766;2023-04-10T11:17:11;2.80;;;1.63;;
44272;SDS011;29964;17.182;-96.766;2023-04-10T11:19:57;4.37;;;1.83;;
44272;SDS011;29964;17.182;-96.766;2023-04-10T11:22:27;5.63;;;2.40;;
44272;SDS011;29964;17.182;-96.766;2023-04-10T11:24:55;3.90;;;2.73;;
44272;SDS011;29964;17.182;-96.766;2023-04-10T11:27:41;5.90;;;3.17;;
44272;SDS011;29964;17.182;-96.766;2023-04-10T11:32:55;7.65;;;4.03;;
44272;SDS011;29964;17.182;-96.766;2023-04-10T11:35:21;13.90;;;5.40;;
44272;SDS011;29964;17.182;-96.766;2023-04-10T11:37:48;9.70;;;6.10;;
44272;SDS011;29964;17.182;-96.766;2023-04-10T11:40:16;8.97;;;4.60;;
44272;SDS011;29964;17.182;-96.766;2023-04-10T11:42:42;8.77;;;5.07;;
44272;SDS011;29964;17.182;-96.766;2023-04-10T11:45:22;10.03;;;4.50;;
44272;SDS011;29964;17.182;-96.766;2023-04-10T11:47:52;9.73;;;5.60;;
44272;SDS011;29964;17.182;-96.766;2023-04-10T11:50:20;6.13;;;3.80;;
44272;SDS011;29964;17.182;-96.766;2023-04-10T11:52:49;4.60;;;3.47;;
44272;SDS011;29964;17.182;-96.766;2023-04-10T11:55:16;6.53;;;5.07;;
44272;SDS011;29964;17.182;-96.766;2023-04-10T11:57:44;7.43;;;4.37;;
44272;SDS011;29964;17.182;-96.766;2023-04-10T12:00:11;5.13;;;3.37;;
44272;SDS011;29964;17.182;-96.766;2023-04-10T12:02:50;5.37;;;3.50;;
44272;SDS011;29964;17.182;-96.766;2023-04-10T12:05:17;5.43;;;3.97;;
44272;SDS011;29964;17.182;-96.766;2023-04-10T12:07:44;5.07;;;3.80;;
44272;SDS011;29964;17.182;-96.766;2023-04-10T12:10:11;4.50;;;2.90;;
44272;SDS011;29964;17.182;-96.766;2023-04-10T12:12:37;4.73;;;3.77;;
44272;SDS011;29964;17.182;-96.766;2023-04-10T12:17:50;5.05;;;2.88;;
44272;SDS011;29964;17.182;-96.766;2023-04-10T12:20:17;4.83;;;2.77;;
44272;SDS011;29964;17.182;-96.766;2023-04-10T12:22:43;4.00;;;2.97;;
44272;SDS011;29964;17.182;-96.766;2023-04-10T12:25:11;10.60;;;3.30;;
44272;SDS011;29964;17.182;-96.766;2023-04-10T12:27:37;5.10;;;3.83;;
44272;SDS011;29964;17.182;-96.766;2023-04-10T12:30:06;4.20;;;2.83;;
44272;SDS011;29964;17.182;-96.766;2023-04-10T12:32:33;4.30;;;2.27;;
44272;SDS011;29964;17.182;-96.766;2023-04-10T12:34:59;4.10;;;2.90;;
44272;SDS011;29964;17.182;-96.766;2023-04-10T12:40:11;3.78;;;2.20;;
44272;SDS011;29964;17.182;-96.766;2023-04-10T12:42:38;11.10;;;3.07;;
44272;SDS011;29964;17.182;-96.766;2023-04-10T12:45:09;3.53;;;2.53;;
44272;SDS011;29964;17.182;-96.766;2023-04-10T12:47:45;5.23;;;3.30;;
44272;SDS011;29964;17.182;-96.766;2023-04-10T12:50:13;12.23;;;3.03;;
44272;SDS011;29964;17.182;-96.766;2023-04-10T12:52:41;5.87;;;3.23;;
44272;SDS011;29964;17.182;-96.766;2023-04-10T12:55:09;4.27;;;2.47;;
44272;SDS011;29964;17.182;-96.766;2023-04-10T12:57:36;3.07;;;2.00;;
44272;SDS011;29964;17.182;-96.766;2023-04-10T13:00:04;5.70;;;3.37;;
44272;SDS011;29964;17.182;-96.766;2023-04-10T13:02:34;3.93;;;3.37;;
44272;SDS011;29964;17.182;-96.766;2023-04-10T13:05:02;4.00;;;2.93;;
44272;SDS011;29964;17.182;-96.766;2023-04-10T13:07:29;3.37;;;2.77;;
44272;SDS011;29964;17.182;-96.766;2023-04-10T13:09:56;4.63;;;3.47;;
44272;SDS011;29964;17.182;-96.766;2023-04-10T13:12:23;6.90;;;4.17;;
44272;SDS011;29964;17.182;-96.766;2023-04-10T13:14:53;8.03;;;4.83;;
44272;SDS011;29964;17.182;-96.766;2023-04-10T13:17:20;5.03;;;3.40;;
44272;SDS011;29964;17.182;-96.766;2023-04-10T13:19:47;5.47;;;3.80;;
44272;SDS011;29964;17.182;-96.766;2023-04-10T13:22:14;8.47;;;4.40;;
44272;SDS011;29964;17.182;-96.766;2023-04-10T13:24:41;12.00;;;3.83;;
44272;SDS011;29964;17.182;-96.766;2023-04-10T13:27:08;5.50;;;3.67;;
44272;SDS011;29964;17.182;-96.766;2023-04-10T13:29:35;13.40;;;4.53;;
44272;SDS011;29964;17.182;-96.766;2023-04-10T13:32:02;10.97;;;2.93;;
44272;SDS011;29964;17.182;-96.766;2023-04-10T13:34:30;10.37;;;4.17;;
44272;SDS011;29964;17.182;-96.766;2023-04-10T13:36:57;5.70;;;3.93;;
44272;SDS011;29964;17.182;-96.766;2023-04-10T13:39:25;12.00;;;4.70;;
44272;SDS011;29964;17.182;-96.766;2023-04-10T13:41:52;4.17;;;2.77;;
44272;SDS011;29964;17.182;-96.766;2023-04-10T13:44:18;5.40;;;3.60;;
44272;SDS011;29964;17.182;-96.766;2023-04-10T13:46:45;7.87;;;3.20;;
44272;SDS011;29964;17.182;-96.766;2023-04-10T13:49:12;4.73;;;3.17;;
44272;SDS011;29964;17.182;-96.766;2023-04-10T13:51:42;4.87;;;2.70;;
44272;SDS011;29964;17.182;-96.766;2023-04-10T13:54:09;4.57;;;3.07;;
44272;SDS011;29964;17.182;-96.766;2023-04-10T13:56:36;7.07;;;3.13;;
44272;SDS011;29964;17.182;-96.766;2023-04-10T13:59:03;3.90;;;2.83;;
44272;SDS011;29964;17.182;-96.766;2023-04-10T14:01:30;5.67;;;3.30;;
44272;SDS011;29964;17.182;-96.766;2023-04-10T14:03:57;9.00;;;2.70;;
44272;SDS011;29964;17.182;-96.766;2023-04-10T14:06:23;9.27;;;3.33;;
44272;SDS011;29964;17.182;-96.766;2023-04-10T14:08:51;4.57;;;3.07;;
44272;SDS011;29964;17.182;-96.766;2023-04-10T14:11:18;8.67;;;2.77;;
44272;SDS011;29964;17.182;-96.766;2023-04-10T14:13:45;4.40;;;3.30;;
44272;SDS011;29964;17.182;-96.766;2023-04-10T14:16:12;3.63;;;2.63;;
44272;SDS011;29964;17.182;-96.766;2023-04-10T14:18:39;4.63;;;2.70;;
44272;SDS011;29964;17.182;-96.766;2023-04-10T14:21:06;9.17;;;2.67;;
44272;SDS011;29964;17.182;-96.766;2023-04-10T14:23:32;2.90;;;2.13;;
44272;SDS011;29964;17.182;-96.766;2023-04-10T14:25:59;3.97;;;2.33;;
44272;SDS011;29964;17.182;-96.766;2023-04-10T14:28:26;3.10;;;2.53;;
44272;SDS011;29964;17.182;-96.766;2023-04-10T14:30:53;3.10;;;2.30;;
44272;SDS011;29964;17.182;-96.766;2023-04-10T14:33:20;5.40;;;1.50;;
44272;SDS011;29964;17.182;-96.766;2023-04-10T14:35:47;4.50;;;2.87;;
44272;SDS011;29964;17.182;-96.766;2023-04-10T14:38:14;3.43;;;2.47;;
44272;SDS011;29964;17.182;-96.766;2023-04-10T14:40:41;6.60;;;2.90;;
44272;SDS011;29964;17.182;-96.766;2023-04-10T14:43:10;2.70;;;1.83;;
44272;SDS011;29964;17.182;-96.766;2023-04-10T14:45:36;4.33;;;2.30;;
44272;SDS011;29964;17.182;-96.766;2023-04-10T14:48:03;7.03;;;2.23;;
44272;SDS011;29964;17.182;-96.766;2023-04-10T14:50:30;3.70;;;2.10;;
44272;SDS011;29964;17.182;-96.766;2023-04-10T14:52:57;3.43;;;2.37;;
44272;SDS011;29964;17.182;-96.766;2023-04-10T14:55:27;4.00;;;2.63;;